Tiverton, United Kingdom
Current Conditions -  °F | °C
As of 11:20 PM on Tuesday 25 Nov 2014 (Local Time) from EGTE Reporting Station
Broken Clouds Broken Clouds  
Wind Chill: 39°   Ceiling: 3000
Heat Index: 43°   Visibility: 6mi
Dew Point: 41°   Wind: 6mph
Humidity: 93%   Direction: 350°N
Pressure: 29.97"   Gusts: NA
Location:  50.9°N, 3.48°W
Report Text: EGTE 252320Z 35005KT 9999 SCT010 BKN030 06/05 Q1015
Loading
Personal Weather Stations






























Interactive Weather Map New forecast layout! Learn more

10-Day Weather Forecast

Advertisements
Track Severe Weather on mobile